Time;durP1;ratioP1;P1;durP2;ratioP2;P2;SDS_P1;SDS_P2;PMS_P1;PMS_P2;Temp;Humidity;BMP_temperature;BMP_pressure;BME280_temperature;BME280_humidity;BME280_pressure;Samples;Min_cycle;Max_cycle;Signal;HPM_P1;HPM_P2
2022/11/07 00:02:09;;;;;;;18.48;8.13;;;3.10;99.90;;;;;;5095328;28;20024;-74
2022/11/07 00:04:35;;;;;;;17.10;8.40;;;3.10;99.90;;;;;;5111591;28;20028;-74
2022/11/07 00:07:01;;;;;;;19.30;7.60;;;3.10;99.90;;;;;;5095650;28;20020;-74
2022/11/07 00:09:27;;;;;;;17.13;9.10;;;3.10;99.90;;;;;;5111048;28;20035;-74
2022/11/07 00:11:54;;;;;;;18.02;8.40;;;3.10;99.90;;;;;;5095836;28;20016;-73
2022/11/07 00:14:20;;;;;;;16.58;8.68;;;3.10;99.90;;;;;;5111274;28;20468;-74
2022/11/07 00:16:47;;;;;;;18.88;8.60;;;3.10;99.90;;;;;;5095443;28;20032;-74
2022/11/07 00:19:15;;;;;;;17.48;8.68;;;3.10;99.90;;;;;;5095096;28;20028;-75
2022/11/07 00:21:41;;;;;;;17.53;8.57;;;3.10;99.90;;;;;;5110908;28;20052;-74
2022/11/07 00:24:07;;;;;;;22.38;8.75;;;3.00;99.90;;;;;;5110852;28;20097;-74
2022/11/07 00:26:33;;;;;;;19.13;8.45;;;3.00;99.90;;;;;;5094929;28;20030;-74
2022/11/07 00:28:58;;;;;;;20.05;8.90;;;3.00;99.90;;;;;;5110691;28;20035;-74
2022/11/07 00:31:24;;;;;;;18.85;8.80;;;3.00;99.90;;;;;;5094813;28;20021;-74
2022/11/07 00:33:51;;;;;;;19.35;9.15;;;3.00;99.90;;;;;;5094593;28;20029;-74
2022/11/07 00:36:19;;;;;;;18.33;7.85;;;3.00;99.90;;;;;;5110332;28;20363;-75
2022/11/07 00:38:45;;;;;;;14.23;6.63;;;3.00;99.90;;;;;;5110584;28;20119;-74
2022/11/07 00:41:11;;;;;;;16.50;7.70;;;3.00;99.90;;;;;;5110521;28;20035;-73
2022/11/07 00:43:37;;;;;;;17.80;7.65;;;3.00;99.90;;;;;;5094553;28;20031;-74
2022/11/07 00:46:05;;;;;;;15.73;8.52;;;2.90;99.90;;;;;;5095226;28;20138;-74
2022/11/07 00:48:31;;;;;;;17.08;7.68;;;2.90;99.90;;;;;;5094820;28;20024;-74
2022/11/07 00:50:57;;;;;;;22.35;7.90;;;2.90;99.90;;;;;;5095057;28;20058;-74
2022/11/07 00:53:22;;;;;;;14.98;8.00;;;2.90;99.90;;;;;;5094740;28;20387;-74
2022/11/07 00:55:48;;;;;;;15.00;7.53;;;2.90;99.90;;;;;;5113204;28;20028;-74
2022/11/07 00:58:16;;;;;;;14.15;7.40;;;2.90;99.90;;;;;;5115129;28;20039;-74
2022/11/07 01:00:41;;;;;;;20.17;8.38;;;2.90;99.90;;;;;;5098744;28;20024;-74
2022/11/07 01:06:01;;;;;;;16.80;7.47;;;2.80;99.90;;;;;;5098190;28;20117;-74
2022/11/07 01:08:27;;;;;;;18.42;8.02;;;2.80;99.90;;;;;;5113850;28;20041;-73
2022/11/07 01:10:54;;;;;;;14.70;7.35;;;2.80;99.90;;;;;;5098525;28;20103;-74
2022/11/07 01:13:19;;;;;;;13.80;7.00;;;2.80;99.90;;;;;;5114397;28;20059;-74
2022/11/07 01:15:45;;;;;;;14.32;7.30;;;2.80;99.90;;;;;;5098274;28;20056;-74
2022/11/07 01:18:11;;;;;;;17.33;7.57;;;2.80;99.90;;;;;;5114068;28;20051;-74
2022/11/07 01:20:37;;;;;;;18.00;8.20;;;2.80;99.90;;;;;;5114070;28;20456;-73
2022/11/07 01:23:03;;;;;;;14.57;7.15;;;2.80;99.90;;;;;;5098244;28;20031;-73
2022/11/07 01:25:28;;;;;;;15.20;7.18;;;2.90;99.90;;;;;;5114212;28;20032;-74
2022/11/07 01:27:54;;;;;;;16.77;7.25;;;2.90;99.90;;;;;;5114086;28;20077;-74
2022/11/07 01:30:19;;;;;;;14.18;7.18;;;2.90;99.90;;;;;;5098079;28;20073;-74
2022/11/07 01:32:45;;;;;;;18.80;7.28;;;2.90;99.90;;;;;;5114399;28;20123;-74
2022/11/07 01:35:11;;;;;;;16.58;7.00;;;2.90;99.90;;;;;;5098128;28;20051;-74
2022/11/07 01:37:36;;;;;;;20.60;7.38;;;3.00;99.90;;;;;;5097627;28;20494;-74
2022/11/07 01:40:02;;;;;;;15.45;6.60;;;3.00;99.90;;;;;;5113753;28;20110;-74
2022/11/07 01:42:28;;;;;;;12.43;6.53;;;2.90;99.90;;;;;;5097862;28;20031;-74
2022/11/07 01:44:57;;;;;;;15.20;6.22;;;3.00;99.90;;;;;;5098259;28;20028;-74
2022/11/07 01:47:30;;;;;;;14.68;7.60;;;3.00;99.90;;;;;;5097426;28;20039;-74
2022/11/07 01:49:56;;;;;;;12.18;6.95;;;3.00;99.90;;;;;;5113658;28;20425;-74
2022/11/07 01:52:27;;;;;;;12.77;6.68;;;3.00;99.90;;;;;;5097525;28;20023;-74
2022/11/07 01:55:06;;;;;;;13.00;7.20;;;3.00;99.90;;;;;;5113745;28;20020;-74
2022/11/07 01:57:41;;;;;;;16.88;7.65;;;3.00;99.90;;;;;;5113196;28;20024;-74
2022/11/07 02:00:10;;;;;;;11.85;6.53;;;3.00;99.90;;;;;;5097815;28;20036;-74
2022/11/07 02:02:36;;;;;;;11.45;6.32;;;3.00;99.90;;;;;;5097208;28;20422;-74
2022/11/07 02:05:03;;;;;;;11.57;6.60;;;3.10;99.90;;;;;;5097073;28;20043;-74
2022/11/07 02:07:29;;;;;;;16.20;7.10;;;3.00;99.90;;;;;;5111959;28;20031;-74
2022/11/07 02:09:55;;;;;;;12.20;6.45;;;3.10;99.90;;;;;;5112396;28;20024;-74
2022/11/07 02:12:25;;;;;;;18.13;6.45;;;3.10;99.90;;;;;;5112563;28;20383;-74
2022/11/07 02:14:52;;;;;;;16.75;7.43;;;3.10;99.90;;;;;;5113272;28;20057;-74
2022/11/07 02:17:18;;;;;;;12.30;6.35;;;3.10;99.90;;;;;;5112370;28;20028;-74
2022/11/07 02:19:45;;;;;;;10.27;6.68;;;3.10;99.90;;;;;;5096703;28;20024;-74
2022/11/07 02:22:18;;;;;;;13.48;6.55;;;3.20;99.90;;;;;;5112230;28;20395;-74
2022/11/07 02:24:47;;;;;;;13.45;7.28;;;3.20;99.90;;;;;;5113180;28;20103;-73
2022/11/07 02:27:15;;;;;;;16.77;6.45;;;3.20;99.90;;;;;;5097089;28;20102;-74
2022/11/07 02:29:45;;;;;;;13.30;6.13;;;3.20;99.90;;;;;;5096847;28;20062;-74
2022/11/07 02:32:11;;;;;;;13.63;6.68;;;3.20;99.90;;;;;;5096573;28;20032;-74
2022/11/07 02:34:37;;;;;;;13.15;6.50;;;3.20;99.90;;;;;;5112745;28;20020;-74
2022/11/07 02:37:16;;;;;;;15.65;6.32;;;3.20;99.90;;;;;;5096254;28;20028;-74
2022/11/07 02:39:42;;;;;;;;;;;3.20;99.90;;;;;;5113079;28;20028;-74
2022/11/07 02:42:08;;;;;;;12.10;6.07;;;3.20;99.90;;;;;;5097894;28;20409;-74
2022/11/07 02:44:34;;;;;;;10.15;6.40;;;3.30;99.90;;;;;;5099390;28;20083;-75
2022/11/07 02:47:00;;;;;;;11.93;6.07;;;3.30;99.90;;;;;;5115803;28;20224;-74
2022/11/07 02:49:26;;;;;;;11.18;5.57;;;3.30;99.90;;;;;;5115569;28;20122;-75
2022/11/07 02:51:51;;;;;;;9.63;5.93;;;3.30;99.90;;;;;;5100567;28;20421;-74
2022/11/07 02:54:17;;;;;;;10.85;5.63;;;3.30;99.90;;;;;;5115947;28;20028;-74
2022/11/07 02:56:42;;;;;;;10.48;5.70;;;3.30;99.90;;;;;;5099856;28;20063;-74
2022/11/07 02:59:08;;;;;;;11.73;5.75;;;3.30;99.90;;;;;;5099211;28;20127;-74
2022/11/07 03:01:34;;;;;;;12.75;6.10;;;3.40;99.90;;;;;;5099087;28;20020;-74
2022/11/07 03:03:59;;;;;;;14.23;6.30;;;3.40;99.90;;;;;;5098491;28;20035;-74
2022/11/07 03:06:25;;;;;;;17.70;6.07;;;3.40;99.90;;;;;;5098503;28;20024;-74
2022/11/07 03:08:51;;;;;;;12.05;5.82;;;3.50;99.90;;;;;;5098049;28;20107;-74
2022/11/07 03:11:18;;;;;;;9.98;5.53;;;3.50;99.90;;;;;;5113345;28;20548;-74
2022/11/07 03:13:48;;;;;;;11.73;5.30;;;3.50;99.90;;;;;;5098037;28;20117;-74
2022/11/07 03:16:15;;;;;;;9.80;5.47;;;3.50;99.90;;;;;;5097727;28;20376;-74
2022/11/07 03:18:41;;;;;;;11.30;5.55;;;3.60;99.90;;;;;;5097530;28;20024;-74
2022/11/07 03:21:07;;;;;;;10.65;6.03;;;3.60;99.90;;;;;;5097936;28;20395;-74
2022/11/07 03:23:34;;;;;;;17.70;6.00;;;3.70;99.90;;;;;;5113876;28;20054;-74
2022/11/07 03:26:00;;;;;;;14.30;5.72;;;3.70;99.90;;;;;;5098253;28;20491;-74
2022/11/07 03:28:26;;;;;;;10.90;5.25;;;3.70;99.90;;;;;;5099097;28;20020;-74
2022/11/07 03:30:51;;;;;;;10.20;5.00;;;3.80;99.90;;;;;;5098574;28;20529;-74
2022/11/07 03:33:17;;;;;;;11.10;4.97;;;3.90;99.90;;;;;;5114024;28;20024;-74
2022/11/07 03:35:43;;;;;;;9.73;5.28;;;3.90;99.90;;;;;;5113772;28;20028;-74
2022/11/07 03:38:09;;;;;;;14.57;5.70;;;3.90;99.90;;;;;;5097724;28;20032;-74
2022/11/07 03:40:35;;;;;;;8.50;5.53;;;4.00;99.90;;;;;;5112875;28;20442;-74
2022/11/07 03:43:01;;;;;;;10.38;5.88;;;4.10;99.90;;;;;;5098129;28;20111;-74
2022/11/07 03:45:27;;;;;;;9.88;5.82;;;4.30;99.90;;;;;;5097152;28;20056;-74
2022/11/07 03:47:53;;;;;;;13.82;6.90;;;4.50;99.90;;;;;;5097354;28;20021;-74
2022/11/07 03:50:20;;;;;;;10.70;7.45;;;4.60;99.90;;;;;;5097599;28;20028;-73
2022/11/07 03:52:47;;;;;;;11.25;7.43;;;5.00;99.90;;;;;;5098035;28;20066;-74
2022/11/07 03:55:14;;;;;;;8.90;6.97;;;5.60;99.90;;;;;;5097454;28;20050;-74
2022/11/07 03:57:41;;;;;;;10.10;6.50;;;6.30;99.90;;;;;;5096785;28;20056;-74
2022/11/07 04:00:08;;;;;;;8.52;5.45;;;6.90;99.90;;;;;;5096453;28;20047;-74
2022/11/07 04:02:34;;;;;;;9.70;5.28;;;7.40;99.90;;;;;;5096426;28;20040;-74
2022/11/07 04:04:59;;;;;;;6.65;4.72;;;7.70;99.90;;;;;;5096385;28;20034;-74
2022/11/07 04:07:25;;;;;;;9.85;5.70;;;7.80;99.90;;;;;;5111997;28;20061;-74
2022/11/07 04:09:51;;;;;;;9.38;5.30;;;7.80;99.90;;;;;;5111799;28;20031;-74
2022/11/07 04:17:45;;;;;;;6.97;4.60;;;7.80;99.90;;;;;;5096181;28;20039;-73
2022/11/07 04:20:11;;;;;;;10.73;5.00;;;7.90;99.90;;;;;;5095354;28;20028;-74
2022/11/07 04:22:36;;;;;;;6.90;4.93;;;7.90;99.90;;;;;;5095671;28;20052;-74
2022/11/07 04:25:02;;;;;;;7.70;5.30;;;8.00;99.90;;;;;;5111517;28;20051;-74
2022/11/07 04:27:43;;;;;;;7.95;4.85;;;8.00;99.90;;;;;;5110865;28;20107;-74
2022/11/07 04:30:18;;;;;;;8.25;5.00;;;8.00;99.90;;;;;;5095005;28;20038;-74
2022/11/07 04:32:55;;;;;;;6.80;4.70;;;8.00;99.90;;;;;;5110934;28;20383;-75
2022/11/07 04:35:23;;;;;;;7.63;5.55;;;8.10;99.90;;;;;;5110721;28;20024;-74
2022/11/07 04:37:49;;;;;;;7.60;5.18;;;8.10;99.90;;;;;;5094945;28;20074;-74
2022/11/07 04:40:15;;;;;;;6.68;5.03;;;8.10;99.90;;;;;;5094944;28;20429;-75
2022/11/07 04:42:42;;;;;;;7.32;4.60;;;8.10;99.90;;;;;;5110762;28;20068;-73
2022/11/07 04:45:08;;;;;;;9.25;5.40;;;8.10;99.90;;;;;;5094516;28;20084;-74
2022/11/07 04:47:34;;;;;;;13.45;5.55;;;8.00;99.90;;;;;;5111931;28;20521;-74
2022/11/07 04:50:00;;;;;;;12.38;6.38;;;8.00;99.90;;;;;;5109959;28;20036;-75
2022/11/07 04:52:25;;;;;;;9.23;5.63;;;7.90;99.90;;;;;;5110730;28;20081;-75
2022/11/07 04:54:51;;;;;;;8.63;5.45;;;7.90;99.90;;;;;;5095508;28;20031;-75
2022/11/07 04:57:17;;;;;;;10.32;6.53;;;7.90;99.90;;;;;;5110732;28;20376;-75
2022/11/07 04:59:42;;;;;;;10.23;6.22;;;7.90;99.90;;;;;;5095047;28;20055;-74
2022/11/07 05:02:09;;;;;;;9.48;6.68;;;7.90;99.90;;;;;;5110680;28;20060;-74
2022/11/07 05:04:35;;;;;;;10.05;6.30;;;7.80;99.90;;;;;;5111350;28;20028;-72
2022/11/07 05:07:01;;;;;;;12.52;6.60;;;7.80;99.90;;;;;;5095112;28;20024;-74
2022/11/07 05:09:26;;;;;;;12.27;6.38;;;7.80;99.90;;;;;;5094480;28;20029;-73
2022/11/07 05:11:53;;;;;;;8.55;5.95;;;7.80;99.90;;;;;;5110791;28;20024;-76
2022/11/07 05:14:18;;;;;;;8.65;5.80;;;7.70;99.90;;;;;;5094413;28;20495;-73
2022/11/07 05:16:44;;;;;;;14.73;6.97;;;7.70;99.90;;;;;;5110921;28;20024;-73
2022/11/07 05:19:17;;;;;;;13.13;7.13;;;7.60;99.90;;;;;;5095047;28;20361;-73
2022/11/07 05:21:44;;;;;;;12.75;6.68;;;7.50;99.90;;;;;;5110181;28;20048;-74
2022/11/07 05:24:10;;;;;;;10.85;7.47;;;7.50;99.90;;;;;;5094900;28;20555;-74
2022/11/07 05:26:36;;;;;;;16.45;7.55;;;7.50;99.90;;;;;;5094403;28;20472;-73
2022/11/07 05:29:02;;;;;;;11.57;7.70;;;7.50;99.90;;;;;;5095293;28;20074;-73
2022/11/07 05:31:28;;;;;;;13.98;7.20;;;7.50;99.90;;;;;;5110402;28;20062;-73
2022/11/07 05:33:53;;;;;;;12.98;7.70;;;7.40;99.90;;;;;;5094747;28;20431;-74
2022/11/07 05:36:22;;;;;;;15.70;8.10;;;7.40;99.90;;;;;;5094631;28;20024;-74
2022/11/07 05:38:50;;;;;;;13.03;7.47;;;7.40;99.90;;;;;;5110541;28;20028;-74
2022/11/07 05:41:17;;;;;;;13.90;7.47;;;7.50;99.90;;;;;;5094667;28;20259;-74
2022/11/07 05:43:43;;;;;;;12.38;8.02;;;7.50;99.90;;;;;;5098139;28;20036;-72
2022/11/07 05:46:09;;;;;;;21.42;8.25;;;7.40;99.90;;;;;;5114641;28;20028;-75
2022/11/07 05:48:35;;;;;;;10.95;8.10;;;7.40;99.90;;;;;;5102729;28;20028;-75
2022/11/07 05:51:02;;;;;;;13.85;8.30;;;7.40;99.90;;;;;;5103142;28;20032;-75
2022/11/07 05:53:28;;;;;;;12.23;7.75;;;7.40;99.90;;;;;;5103499;28;20056;-76
2022/11/07 05:55:54;;;;;;;13.63;7.93;;;7.40;99.90;;;;;;5102105;28;20016;-75
2022/11/07 05:58:20;;;;;;;12.50;8.27;;;7.40;99.90;;;;;;5101762;28;20043;-75
2022/11/07 06:00:46;;;;;;;17.08;9.05;;;7.30;99.90;;;;;;5101295;28;20024;-75
2022/11/07 06:03:12;;;;;;;16.50;9.10;;;7.30;99.90;;;;;;5116150;28;20057;-72
2022/11/07 06:05:39;;;;;;;20.58;9.13;;;7.30;99.90;;;;;;5113278;28;20103;-72
2022/11/07 06:08:08;;;;;;;17.27;9.52;;;7.30;99.90;;;;;;5099234;28;20028;-74
2022/11/07 06:10:35;;;;;;;15.63;8.63;;;7.30;99.90;;;;;;5115623;28;20484;-73
2022/11/07 06:13:03;;;;;;;13.70;8.18;;;7.40;99.90;;;;;;5098399;28;20020;-75
2022/11/07 06:15:32;;;;;;;16.00;8.15;;;7.30;99.90;;;;;;5098331;28;20048;-75
2022/11/07 06:18:00;;;;;;;14.35;8.45;;;7.30;99.90;;;;;;5095773;28;20119;-75
2022/11/07 06:20:26;;;;;;;14.13;8.65;;;7.30;99.90;;;;;;5097119;28;20024;-76
2022/11/07 06:22:55;;;;;;;16.50;9.40;;;7.30;99.90;;;;;;5095778;28;20054;-74
2022/11/07 06:25:20;;;;;;;16.30;10.40;;;7.30;99.90;;;;;;5097120;28;20078;-75
2022/11/07 06:27:46;;;;;;;16.45;9.18;;;7.30;99.90;;;;;;5097201;28;20032;-74
2022/11/07 06:30:12;;;;;;;17.55;10.23;;;7.30;99.90;;;;;;5112908;28;20078;-74
2022/11/07 06:32:42;;;;;;;21.35;11.77;;;7.30;99.90;;;;;;5098073;28;20028;-74
2022/11/07 06:35:09;;;;;;;17.60;10.77;;;7.30;99.90;;;;;;5097445;28;20028;-74
2022/11/07 06:37:34;;;;;;;17.92;11.23;;;7.40;99.90;;;;;;5095786;28;20031;-74
2022/11/07 06:40:00;;;;;;;25.80;12.43;;;7.40;99.90;;;;;;5096113;28;20028;-75
2022/11/07 06:42:26;;;;;;;17.35;10.98;;;7.50;99.90;;;;;;5097605;28;20036;-73
2022/11/07 06:44:51;;;;;;;17.63;10.40;;;7.50;99.90;;;;;;5097806;28;20028;-75
2022/11/07 06:47:17;;;;;;;18.70;8.82;;;7.50;99.90;;;;;;5096648;28;20024;-74
2022/11/07 06:49:48;;;;;;;18.73;10.35;;;7.50;99.90;;;;;;5113417;28;20028;-73
2022/11/07 06:52:15;;;;;;;15.63;8.57;;;7.50;99.90;;;;;;5095556;28;20020;-73
2022/11/07 06:54:42;;;;;;;19.20;9.60;;;7.50;99.90;;;;;;5097827;28;20539;-74
2022/11/07 06:57:08;;;;;;;14.50;7.65;;;7.50;99.90;;;;;;5097181;28;20054;-74
2022/11/07 07:03:05;;;;;;;12.40;7.15;;;7.50;99.90;;;;;;5096571;28;20166;-74
2022/11/07 07:09:40;;;;;;;14.10;9.35;;;7.60;99.90;;;;;;5080482;28;20078;-74
2022/11/07 07:15:27;;;;;;;15.10;8.73;;;7.70;99.90;;;;;;5083302;28;20031;-73
2022/11/07 07:18:12;;;;;;;13.40;8.10;;;7.70;99.90;;;;;;5083097;28;20032;-74
2022/11/07 07:20:37;;;;;;;16.65;8.48;;;7.80;99.90;;;;;;5082544;28;20054;-74
2022/11/07 07:23:03;;;;;;;18.40;9.40;;;7.80;99.90;;;;;;5082503;28;20076;-74
2022/11/07 07:25:29;;;;;;;13.15;8.20;;;7.90;99.90;;;;;;5084885;28;20052;-74
2022/11/07 07:27:54;;;;;;;12.95;8.40;;;7.90;99.90;;;;;;5081075;28;20036;-74
2022/11/07 07:30:20;;;;;;;27.48;9.30;;;7.90;99.90;;;;;;5081128;28;20066;-80
2022/11/07 07:32:46;;;;;;;12.00;7.57;;;8.00;99.90;;;;;;5080529;28;20971;-74
2022/11/07 07:35:11;;;;;;;14.35;8.02;;;8.10;99.90;;;;;;5082367;28;20024;-75
2022/11/07 07:37:37;;;;;;;13.68;7.53;;;8.10;99.90;;;;;;5083940;28;20076;-75
2022/11/07 07:40:03;;;;;;;12.60;7.88;;;8.30;99.90;;;;;;5083883;28;20417;-74
2022/11/07 07:42:28;;;;;;;18.50;8.52;;;8.30;99.90;;;;;;5082839;28;20039;-74
2022/11/07 07:44:54;;;;;;;13.00;7.53;;;8.40;99.90;;;;;;5083598;28;20151;-74
2022/11/07 07:47:20;;;;;;;13.90;7.45;;;8.50;99.90;;;;;;5079976;28;20434;-74
2022/11/07 07:49:45;;;;;;;16.77;8.13;;;8.60;99.90;;;;;;5079009;28;20032;-74
2022/11/07 07:52:11;;;;;;;12.43;7.78;;;8.60;99.90;;;;;;5078937;28;20035;-78
2022/11/07 07:54:36;;;;;;;16.90;7.50;;;8.70;99.90;;;;;;5075803;28;20031;-75
2022/11/07 07:57:03;;;;;;;11.02;7.38;;;8.80;99.90;;;;;;5078375;28;20043;-74
2022/11/07 07:59:28;;;;;;;15.68;7.53;;;8.80;99.90;;;;;;5074804;28;20035;-74
2022/11/07 08:01:54;;;;;;;15.27;6.93;;;8.90;99.90;;;;;;5077927;28;20039;-74
2022/11/07 08:04:19;;;;;;;17.10;8.95;;;9.00;99.90;;;;;;5075061;28;20086;-74
2022/11/07 08:06:45;;;;;;;28.83;16.65;;;9.00;99.90;;;;;;5077346;28;20056;-76
2022/11/07 08:09:11;;;;;;;21.58;11.93;;;9.00;99.90;;;;;;5077965;28;20052;-76
2022/11/07 08:11:36;;;;;;;17.13;8.25;;;9.10;99.90;;;;;;5077714;28;20020;-76
2022/11/07 08:14:02;;;;;;;14.50;9.35;;;9.10;99.90;;;;;;5077170;28;20032;-76
2022/11/07 08:16:28;;;;;;;12.05;8.95;;;9.20;99.90;;;;;;5073396;28;20036;-74
2022/11/07 08:18:53;;;;;;;21.23;10.88;;;9.30;99.90;;;;;;5072148;28;20047;-74
2022/11/07 08:21:19;;;;;;;22.02;10.98;;;9.40;99.90;;;;;;5074002;28;20076;-74
2022/11/07 08:23:48;;;;;;;23.45;11.13;;;9.50;99.90;;;;;;5073392;28;20066;-73
2022/11/07 08:26:16;;;;;;;16.35;8.43;;;9.70;99.90;;;;;;5098765;28;20050;-77
2022/11/07 08:28:41;;;;;;;17.90;10.35;;;10.00;99.90;;;;;;5082281;28;20463;-73
2022/11/07 08:31:10;;;;;;;15.43;8.63;;;10.10;99.90;;;;;;5094837;28;20025;-73
2022/11/07 08:33:37;;;;;;;18.48;8.02;;;10.20;99.90;;;;;;5093257;28;20459;-73
2022/11/07 08:36:05;;;;;;;10.07;7.18;;;10.30;99.90;;;;;;5093515;28;20032;-73
2022/11/07 08:38:32;;;;;;;20.20;8.93;;;10.40;99.90;;;;;;5089741;28;20029;-73
2022/11/07 08:40:58;;;;;;;20.92;8.43;;;10.40;99.90;;;;;;5074384;28;20095;-73
2022/11/07 08:43:24;;;;;;;16.80;8.70;;;10.50;99.90;;;;;;5073310;28;20040;-73
2022/11/07 08:45:52;;;;;;;16.42;7.35;;;10.60;99.90;;;;;;5073828;28;20020;-73
2022/11/07 08:48:18;;;;;;;13.05;7.05;;;10.80;99.90;;;;;;5072229;28;20045;-73
2022/11/07 08:50:44;;;;;;;10.38;7.43;;;10.90;99.90;;;;;;5073845;28;20031;-72
2022/11/07 08:53:10;;;;;;;14.00;7.13;;;11.00;99.90;;;;;;5072499;28;20368;-73
2022/11/07 08:55:36;;;;;;;13.82;7.00;;;11.00;99.90;;;;;;5073371;28;20020;-73
2022/11/07 08:58:06;;;;;;;13.80;6.15;;;11.10;99.90;;;;;;5073932;28;20028;-73
2022/11/07 09:00:33;;;;;;;10.50;6.55;;;11.10;99.90;;;;;;5072132;28;20473;-73
2022/11/07 09:03:03;;;;;;;12.20;6.90;;;11.20;99.90;;;;;;5073083;28;20037;-73
2022/11/07 09:05:29;;;;;;;14.52;7.10;;;11.20;99.90;;;;;;5072460;28;20032;-73
2022/11/07 09:07:55;;;;;;;13.80;7.13;;;11.20;99.90;;;;;;5073999;28;20029;-73
2022/11/07 09:10:21;;;;;;;17.40;6.82;;;11.20;99.90;;;;;;5073882;28;20114;-73
2022/11/07 09:12:48;;;;;;;10.13;5.88;;;11.30;99.90;;;;;;5072092;28;20119;-74
2022/11/07 09:15:14;;;;;;;40.97;20.02;;;11.60;99.90;;;;;;5072143;28;20379;-74
2022/11/07 09:17:40;;;;;;;16.95;10.60;;;11.90;99.90;;;;;;5077125;28;20029;-74
2022/11/07 09:20:07;;;;;;;15.90;9.52;;;12.60;99.90;;;;;;5075882;28;20473;-74
2022/11/07 09:22:33;;;;;;;18.23;9.68;;;13.50;99.90;;;;;;5075313;28;20045;-74
2022/11/07 09:24:58;;;;;;;6.25;4.22;;;14.10;99.90;;;;;;5076219;28;20047;-74
2022/11/07 09:27:24;;;;;;;2.72;2.45;;;15.10;99.90;;;;;;5076603;28;20021;-74
2022/11/07 09:29:50;;;;;;;3.28;1.25;;;16.10;99.90;;;;;;5076965;28;20032;-74
2022/11/07 09:32:15;;;;;;;3.25;1.63;;;16.90;99.90;;;;;;5075608;28;20048;-75
2022/11/07 09:34:43;;;;;;;1.63;1.48;;;17.30;99.90;;;;;;5076579;28;20409;-75
2022/11/07 09:37:10;;;;;;;1.30;1.10;;;17.40;99.90;;;;;;5076846;28;20024;-75
2022/11/07 09:39:36;;;;;;;3.10;1.15;;;17.40;99.30;;;;;;5075911;28;20107;-75
2022/11/07 09:42:13;;;;;;;2.63;1.20;;;17.70;99.30;;;;;;5075546;28;20052;-75
2022/11/07 09:44:44;;;;;;;9.98;4.40;;;18.20;98.20;;;;;;5075442;28;20170;-75
2022/11/07 09:47:10;;;;;;;2.53;1.70;;;18.00;97.40;;;;;;5075428;28;20489;-75
2022/11/07 09:49:37;;;;;;;8.93;4.53;;;18.20;97.40;;;;;;5076637;28;20110;-75
2022/11/07 09:52:21;;;;;;;6.78;2.40;;;18.30;95.90;;;;;;5076261;28;20021;-75
2022/11/07 09:54:55;;;;;;;4.05;2.22;;;18.70;95.90;;;;;;5075741;28;20444;-75
2022/11/07 09:57:22;;;;;;;1.73;1.40;;;19.40;95.70;;;;;;5076835;28;20029;-75
2022/11/07 09:59:59;;;;;;;5.22;3.17;;;19.90;93.90;;;;;;5075211;28;20490;-76
2022/11/07 10:02:30;;;;;;;14.75;7.65;;;20.30;93.00;;;;;;5076444;28;20035;-76
2022/11/07 10:04:58;;;;;;;3.03;1.48;;;20.50;93.60;;;;;;5076671;28;20158;-76
2022/11/07 10:08:08;;;;;;;1.80;1.60;;;20.60;90.20;;;;;;5075029;28;20475;-75
2022/11/07 10:10:53;;;;;;;1.27;0.90;;;20.40;89.70;;;;;;5072648;28;20036;-76
2022/11/07 10:13:25;;;;;;;1.13;1.08;;;19.60;87.70;;;;;;5075889;28;20039;-76
2022/11/07 10:16:08;;;;;;;3.90;0.90;;;19.20;89.90;;;;;;5075267;28;20436;-75
2022/11/07 10:18:49;;;;;;;0.60;0.60;;;18.30;90.20;;;;;;5074926;28;20089;-75
2022/11/07 10:21:24;;;;;;;0.60;0.60;;;18.00;91.20;;;;;;5076248;28;20049;-76
2022/11/07 10:24:27;;;;;;;0.55;0.40;;;18.00;91.70;;;;;;5074934;28;20037;-76
2022/11/07 10:26:54;;;;;;;2.60;1.20;;;18.30;91.00;;;;;;5074712;28;20124;-76
2022/11/07 10:29:23;;;;;;;2.03;0.60;;;18.80;91.20;;;;;;5074225;28;20028;-76
2022/11/07 10:32:11;;;;;;;3.25;0.22;;;19.40;89.40;;;;;;5074867;28;20038;-76
2022/11/07 10:34:46;;;;;;;1.20;0.40;;;19.50;86.00;;;;;;5074587;28;20044;-76
2022/11/07 10:37:12;;;;;;;0.50;0.47;;;19.60;86.50;;;;;;5074741;28;20490;-76
2022/11/07 10:39:37;;;;;;;0.43;0.40;;;20.00;82.00;;;;;;5075799;28;20103;-76
2022/11/07 10:42:21;;;;;;;1.13;0.55;;;20.00;82.70;;;;;;5075524;28;20101;-76
2022/11/07 10:44:48;;;;;;;3.03;0.40;;;20.40;80.40;;;;;;5074024;28;20036;-76
2022/11/07 10:47:16;;;;;;;0.38;0.38;;;20.90;79.50;;;;;;5075606;28;20032;-76
2022/11/07 10:49:54;;;;;;;1.95;0.75;;;21.50;73.60;;;;;;5074404;28;20029;-76
2022/11/07 10:52:19;;;;;;;1.77;0.38;;;20.80;73.00;;;;;;5075462;28;20068;-76
2022/11/07 10:54:45;;;;;;;0.68;0.30;;;20.10;74.90;;;;;;5075361;28;20421;-76
2022/11/07 10:57:17;;;;;;;0.60;0.35;;;19.40;75.90;;;;;;5073591;28;20077;-76
2022/11/07 10:59:49;;;;;;;1.45;0.30;;;18.90;79.90;;;;;;5074994;28;20020;-76
2022/11/07 11:02:26;;;;;;;0.40;0.20;;;18.70;81.00;;;;;;5075328;28;20056;-76
2022/11/07 11:04:55;;;;;;;1.08;0.43;;;18.80;79.50;;;;;;5075146;28;20021;-76
2022/11/07 11:07:25;;;;;;;1.25;0.40;;;18.10;80.30;;;;;;5073792;28;20025;-76
2022/11/07 11:09:56;;;;;;;0.93;0.30;;;17.70;83.20;;;;;;5073820;28;20463;-76
2022/11/07 11:12:31;;;;;;;1.45;0.20;;;18.40;82.60;;;;;;5075111;28;20024;-76
2022/11/07 11:15:10;;;;;;;1.40;0.35;;;19.50;79.30;;;;;;5074984;28;20487;-76
2022/11/07 11:17:35;;;;;;;;;;;19.90;76.10;;;;;;5075419;28;20028;-76
2022/11/07 11:20:03;;;;;;;0.80;0.20;;;20.30;75.40;;;;;;5073648;28;19909;-76
2022/11/07 11:22:29;;;;;;;3.05;0.60;;;20.30;72.60;;;;;;5074898;28;20040;-76
2022/11/07 11:25:13;;;;;;;0.47;0.30;;;20.40;73.20;;;;;;5074932;28;20051;-75
2022/11/07 11:27:40;;;;;;;1.40;0.30;;;20.90;71.30;;;;;;5073584;28;20039;-76
2022/11/07 11:30:16;;;;;;;1.63;0.70;;;20.90;69.70;;;;;;5073369;28;20427;-75
2022/11/07 11:32:43;;;;;;;1.45;0.50;;;20.70;70.30;;;;;;5074683;28;20024;-75
2022/11/07 11:35:39;;;;;;;0.98;0.40;;;21.10;69.20;;;;;;5073348;28;20030;-76
2022/11/07 11:38:32;;;;;;;0.50;0.30;;;21.20;69.20;;;;;;5073901;28;20024;-76
2022/11/07 11:41:22;;;;;;;1.10;0.38;;;21.50;68.60;;;;;;5073548;28;20032;-75
2022/11/07 11:44:19;;;;;;;2.85;0.60;;;21.70;67.00;;;;;;5074311;28;20051;-75
2022/11/07 11:47:08;;;;;;;0.65;0.20;;;22.10;65.40;;;;;;5073112;28;20094;-76
2022/11/07 11:49:52;;;;;;;1.38;0.40;;;22.20;65.00;;;;;;5073176;28;20024;-75
2022/11/07 11:52:24;;;;;;;1.05;0.50;;;22.40;63.20;;;;;;5073899;28;20024;-76
2022/11/07 11:54:51;;;;;;;1.55;0.40;;;21.70;62.10;;;;;;5073485;28;20115;-75
2022/11/07 11:57:20;;;;;;;2.47;0.55;;;21.30;64.10;;;;;;5073134;28;20056;-75
2022/11/07 12:00:04;;;;;;;0.60;0.40;;;21.30;64.10;;;;;;5074227;28;20025;-75
2022/11/07 12:03:08;;;;;;;0.88;0.50;;;21.40;63.60;;;;;;5072722;28;20044;-76
2022/11/07 12:06:13;;;;;;;0.85;0.32;;;22.00;64.10;;;;;;5074025;28;20039;-75
2022/11/07 12:09:14;;;;;;;4.75;0.70;;;22.20;61.80;;;;;;5073093;28;20036;-76
2022/11/07 12:12:00;;;;;;;1.48;0.55;;;22.30;61.50;;;;;;5063530;28;20399;-76
2022/11/07 12:14:43;;;;;;;0.95;0.20;;;21.40;62.20;;;;;;5072392;28;20036;-75
2022/11/07 12:17:15;;;;;;;2.90;0.50;;;21.20;62.50;;;;;;5074027;28;20456;-75
2022/11/07 12:20:08;;;;;;;1.80;0.28;;;21.10;63.00;;;;;;5073877;28;20031;-75
2022/11/07 12:23:01;;;;;;;1.83;0.40;;;21.00;63.40;;;;;;5073452;28;20053;-75
2022/11/07 12:25:52;;;;;;;3.47;0.40;;;21.10;64.10;;;;;;5072457;28;20024;-75
2022/11/07 12:28:29;;;;;;;0.85;0.15;;;21.40;63.30;;;;;;5073872;28;20024;-75
2022/11/07 12:31:28;;;;;;;1.48;0.45;;;21.80;62.80;;;;;;5072574;28;20456;-76
2022/11/07 12:34:01;;;;;;;1.23;0.30;;;21.90;61.20;;;;;;5072346;28;20033;-75
2022/11/07 12:37:01;;;;;;;3.20;0.85;;;22.10;61.50;;;;;;5073728;28;20035;-75
2022/11/07 12:39:42;;;;;;;1.95;0.47;;;22.20;61.40;;;;;;5072543;28;20082;-75
2022/11/07 12:42:17;;;;;;;2.60;0.30;;;22.60;60.70;;;;;;5073720;28;20078;-75
2022/11/07 12:45:04;;;;;;;1.95;0.30;;;22.70;59.80;;;;;;5072485;28;20468;-75
2022/11/07 12:47:41;;;;;;;1.25;0.20;;;22.70;59.60;;;;;;5073993;28;20087;-75
2022/11/07 12:50:32;;;;;;;2.30;0.50;;;22.40;58.50;;;;;;5072332;28;20123;-75
2022/11/07 12:53:17;;;;;;;1.25;0.38;;;22.40;59.20;;;;;;5077464;28;20091;-75
2022/11/07 12:55:49;;;;;;;1.67;0.38;;;22.40;58.90;;;;;;5076600;28;20025;-75
2022/11/07 12:58:28;;;;;;;0.43;0.20;;;22.60;59.20;;;;;;5077396;28;20021;-75
2022/11/07 13:00:54;;;;;;;1.35;0.50;;;21.50;59.70;;;;;;5077135;28;20017;-62
2022/11/07 13:03:39;;;;;;;2.95;0.17;;;21.50;61.20;;;;;;5076136;28;20037;-63
2022/11/07 13:06:44;;;;;;;2.55;0.17;;;21.50;61.40;;;;;;5076166;28;20082;-63
2022/11/07 13:09:37;;;;;;;3.28;0.85;;;21.80;61.20;;;;;;5075239;28;20036;-62
2022/11/07 13:12:21;;;;;;;2.63;0.40;;;22.10;61.30;;;;;;5077521;28;20060;-63
2022/11/07 13:14:47;;;;;;;0.85;0.30;;;22.40;59.60;;;;;;5076957;28;20095;-63
2022/11/07 13:17:29;;;;;;;1.75;0.30;;;22.20;59.40;;;;;;5077460;28;20016;-63
2022/11/07 13:20:19;;;;;;;3.67;0.55;;;21.90;59.30;;;;;;5077656;28;20025;-62
2022/11/07 13:22:58;;;;;;;1.45;0.43;;;20.70;62.70;;;;;;5077109;28;20476;-63